sensor_id;sensor_type;location;lat;lon;timestamp;temperature;humidity
22813;DHT22;11573;51.334;3.244;2022-11-15T00:01:44;10.00;99.90
22813;DHT22;11573;51.334;3.244;2022-11-15T00:04:30;10.10;99.90
22813;DHT22;11573;51.334;3.244;2022-11-15T00:07:15;10.10;99.90
22813;DHT22;11573;51.334;3.244;2022-11-15T00:10:21;10.20;99.90
22813;DHT22;11573;51.334;3.244;2022-11-15T00:13:11;10.20;99.90
22813;DHT22;11573;51.334;3.244;2022-11-15T00:15:59;10.20;99.90
22813;DHT22;11573;51.334;3.244;2022-11-15T00:18:45;10.30;99.90
22813;DHT22;11573;51.334;3.244;2022-11-15T00:21:35;10.40;99.90
22813;DHT22;11573;51.334;3.244;2022-11-15T00:24:20;10.40;99.90
22813;DHT22;11573;51.334;3.244;2022-11-15T00:27:06;10.50;99.90
22813;DHT22;11573;51.334;3.244;2022-11-15T00:29:52;10.50;99.90
22813;DHT22;11573;51.334;3.244;2022-11-15T00:32:38;10.60;99.90
22813;DHT22;11573;51.334;3.244;2022-11-15T00:35:24;10.60;99.90
22813;DHT22;11573;51.334;3.244;2022-11-15T00:38:09;10.60;99.90
22813;DHT22;11573;51.334;3.244;2022-11-15T00:40:55;10.70;99.90
22813;DHT22;11573;51.334;3.244;2022-11-15T00:43:40;10.70;99.90
22813;DHT22;11573;51.334;3.244;2022-11-15T00:46:28;10.70;99.90
22813;DHT22;11573;51.334;3.244;2022-11-15T00:49:14;10.80;99.90
22813;DHT22;11573;51.334;3.244;2022-11-15T00:52:00;10.80;99.90
22813;DHT22;11573;51.334;3.244;2022-11-15T00:54:45;10.80;99.90
22813;DHT22;11573;51.334;3.244;2022-11-15T00:57:31;10.80;99.90
22813;DHT22;11573;51.334;3.244;2022-11-15T01:00:16;10.90;99.90
22813;DHT22;11573;51.334;3.244;2022-11-15T01:03:02;10.90;99.90
22813;DHT22;11573;51.334;3.244;2022-11-15T01:05:47;11.00;99.90
22813;DHT22;11573;51.334;3.244;2022-11-15T01:08:33;11.00;99.90
22813;DHT22;11573;51.334;3.244;2022-11-15T01:11:19;11.00;99.90
22813;DHT22;11573;51.334;3.244;2022-11-15T01:14:04;11.00;99.90
22813;DHT22;11573;51.334;3.244;2022-11-15T01:16:50;11.10;99.90
22813;DHT22;11573;51.334;3.244;2022-11-15T01:19:35;11.10;99.90
22813;DHT22;11573;51.334;3.244;2022-11-15T01:22:21;11.10;99.90
22813;DHT22;11573;51.334;3.244;2022-11-15T01:25:07;11.10;99.90
22813;DHT22;11573;51.334;3.244;2022-11-15T01:27:52;11.20;99.90
22813;DHT22;11573;51.334;3.244;2022-11-15T01:30:38;11.20;99.90
22813;DHT22;11573;51.334;3.244;2022-11-15T01:33:23;11.20;99.90
22813;DHT22;11573;51.334;3.244;2022-11-15T01:36:20;11.20;99.90
22813;DHT22;11573;51.334;3.244;2022-11-15T01:39:09;11.20;99.90
22813;DHT22;11573;51.334;3.244;2022-11-15T01:41:55;11.20;99.90
22813;DHT22;11573;51.334;3.244;2022-11-15T01:44:41;11.20;99.90
22813;DHT22;11573;51.334;3.244;2022-11-15T01:47:38;11.20;99.90
22813;DHT22;11573;51.334;3.244;2022-11-15T01:50:27;11.30;99.90
22813;DHT22;11573;51.334;3.244;2022-11-15T01:53:15;11.20;99.90
22813;DHT22;11573;51.334;3.244;2022-11-15T01:56:07;11.30;99.90
22813;DHT22;11573;51.334;3.244;2022-11-15T01:58:55;11.30;99.90
22813;DHT22;11573;51.334;3.244;2022-11-15T02:01:42;11.30;99.90
22813;DHT22;11573;51.334;3.244;2022-11-15T02:04:28;11.30;99.90
22813;DHT22;11573;51.334;3.244;2022-11-15T02:07:17;11.30;99.90
22813;DHT22;11573;51.334;3.244;2022-11-15T02:10:13;11.20;99.90
22813;DHT22;11573;51.334;3.244;2022-11-15T02:13:01;11.20;99.90
22813;DHT22;11573;51.334;3.244;2022-11-15T02:16:09;11.20;99.90
22813;DHT22;11573;51.334;3.244;2022-11-15T02:22:00;11.20;99.90
22813;DHT22;11573;51.334;3.244;2022-11-15T02:33:57;10.90;99.90
22813;DHT22;11573;51.334;3.244;2022-11-15T02:37:42;10.90;99.90
22813;DHT22;11573;51.334;3.244;2022-11-15T02:43:24;10.80;99.90
22813;DHT22;11573;51.334;3.244;2022-11-15T02:46:53;10.80;99.90
22813;DHT22;11573;51.334;3.244;2022-11-15T02:50:06;10.80;99.90
22813;DHT22;11573;51.334;3.244;2022-11-15T02:52:53;10.80;99.90
22813;DHT22;11573;51.334;3.244;2022-11-15T02:55:43;10.80;99.90
22813;DHT22;11573;51.334;3.244;2022-11-15T03:04:29;10.80;99.90
22813;DHT22;11573;51.334;3.244;2022-11-15T03:07:34;10.80;99.90
22813;DHT22;11573;51.334;3.244;2022-11-15T03:10:26;10.80;99.90
22813;DHT22;11573;51.334;3.244;2022-11-15T03:13:29;10.80;99.90
22813;DHT22;11573;51.334;3.244;2022-11-15T03:19:45;10.60;99.90
22813;DHT22;11573;51.334;3.244;2022-11-15T03:22:38;10.60;99.90
22813;DHT22;11573;51.334;3.244;2022-11-15T03:25:26;10.60;99.90
22813;DHT22;11573;51.334;3.244;2022-11-15T03:28:20;10.50;99.90
22813;DHT22;11573;51.334;3.244;2022-11-15T03:31:09;10.50;99.90
22813;DHT22;11573;51.334;3.244;2022-11-15T03:34:34;10.50;99.90
22813;DHT22;11573;51.334;3.244;2022-11-15T03:37:24;10.40;99.90
22813;DHT22;11573;51.334;3.244;2022-11-15T03:40:11;10.40;99.90
22813;DHT22;11573;51.334;3.244;2022-11-15T03:49:19;10.30;99.90
22813;DHT22;11573;51.334;3.244;2022-11-15T03:52:07;10.30;99.90
22813;DHT22;11573;51.334;3.244;2022-11-15T03:54:55;10.20;99.90
22813;DHT22;11573;51.334;3.244;2022-11-15T03:57:41;10.20;99.90
22813;DHT22;11573;51.334;3.244;2022-11-15T04:00:27;10.10;99.90
22813;DHT22;11573;51.334;3.244;2022-11-15T04:03:13;10.10;99.90
22813;DHT22;11573;51.334;3.244;2022-11-15T04:05:58;10.10;99.90
22813;DHT22;11573;51.334;3.244;2022-11-15T04:08:44;10.00;99.90
22813;DHT22;11573;51.334;3.244;2022-11-15T04:11:29;10.00;99.90
22813;DHT22;11573;51.334;3.244;2022-11-15T04:14:15;9.90;99.90
22813;DHT22;11573;51.334;3.244;2022-11-15T04:17:00;9.90;99.90
22813;DHT22;11573;51.334;3.244;2022-11-15T04:19:46;9.90;99.90
22813;DHT22;11573;51.334;3.244;2022-11-15T04:22:52;9.80;99.90
22813;DHT22;11573;51.334;3.244;2022-11-15T04:26:02;9.80;99.90
22813;DHT22;11573;51.334;3.244;2022-11-15T04:28:49;9.80;99.90
22813;DHT22;11573;51.334;3.244;2022-11-15T04:31:53;9.80;99.90
22813;DHT22;11573;51.334;3.244;2022-11-15T04:34:39;9.70;99.90
22813;DHT22;11573;51.334;3.244;2022-11-15T04:37:24;9.70;99.90
22813;DHT22;11573;51.334;3.244;2022-11-15T04:40:10;9.70;99.90
22813;DHT22;11573;51.334;3.244;2022-11-15T04:42:55;9.70;99.90
22813;DHT22;11573;51.334;3.244;2022-11-15T04:45:47;9.70;99.90
22813;DHT22;11573;51.334;3.244;2022-11-15T04:48:33;9.60;99.90
22813;DHT22;11573;51.334;3.244;2022-11-15T04:51:19;9.60;99.90
22813;DHT22;11573;51.334;3.244;2022-11-15T04:54:04;9.50;99.90
22813;DHT22;11573;51.334;3.244;2022-11-15T04:56:50;9.50;99.90
22813;DHT22;11573;51.334;3.244;2022-11-15T04:59:35;9.40;99.90
22813;DHT22;11573;51.334;3.244;2022-11-15T05:02:20;9.40;99.90
22813;DHT22;11573;51.334;3.244;2022-11-15T05:05:06;9.30;99.90
22813;DHT22;11573;51.334;3.244;2022-11-15T05:07:52;9.30;99.90
22813;DHT22;11573;51.334;3.244;2022-11-15T05:10:37;9.20;99.90
22813;DHT22;11573;51.334;3.244;2022-11-15T05:13:23;9.10;99.90
22813;DHT22;11573;51.334;3.244;2022-11-15T05:16:09;9.10;99.90
22813;DHT22;11573;51.334;3.244;2022-11-15T05:18:54;9.00;99.90
22813;DHT22;11573;51.334;3.244;2022-11-15T05:21:40;9.00;99.90
22813;DHT22;11573;51.334;3.244;2022-11-15T05:24:25;8.90;99.90
22813;DHT22;11573;51.334;3.244;2022-11-15T05:27:11;8.90;99.90
22813;DHT22;11573;51.334;3.244;2022-11-15T05:29:56;8.90;99.90
22813;DHT22;11573;51.334;3.244;2022-11-15T05:32:42;8.80;99.90
22813;DHT22;11573;51.334;3.244;2022-11-15T05:35:39;8.80;99.90
22813;DHT22;11573;51.334;3.244;2022-11-15T05:38:26;8.80;99.90
22813;DHT22;11573;51.334;3.244;2022-11-15T05:41:12;8.80;99.90
22813;DHT22;11573;51.334;3.244;2022-11-15T05:43:59;8.80;99.90
22813;DHT22;11573;51.334;3.244;2022-11-15T05:46:46;8.80;99.90
22813;DHT22;11573;51.334;3.244;2022-11-15T05:49:36;8.70;99.90
22813;DHT22;11573;51.334;3.244;2022-11-15T05:52:27;8.60;99.90
22813;DHT22;11573;51.334;3.244;2022-11-15T05:55:13;8.60;99.90
22813;DHT22;11573;51.334;3.244;2022-11-15T05:58:00;8.60;99.90
22813;DHT22;11573;51.334;3.244;2022-11-15T06:00:46;8.60;99.90
22813;DHT22;11573;51.334;3.244;2022-11-15T06:03:31;8.50;99.90
22813;DHT22;11573;51.334;3.244;2022-11-15T06:06:17;8.50;99.90
22813;DHT22;11573;51.334;3.244;2022-11-15T06:09:02;8.50;99.90
22813;DHT22;11573;51.334;3.244;2022-11-15T06:11:48;8.50;99.90
22813;DHT22;11573;51.334;3.244;2022-11-15T06:14:33;8.50;99.90
22813;DHT22;11573;51.334;3.244;2022-11-15T06:17:19;8.50;99.90
22813;DHT22;11573;51.334;3.244;2022-11-15T06:20:05;8.50;99.90
22813;DHT22;11573;51.334;3.244;2022-11-15T06:22:51;8.50;99.90
22813;DHT22;11573;51.334;3.244;2022-11-15T06:25:36;8.50;99.90
22813;DHT22;11573;51.334;3.244;2022-11-15T06:28:22;8.50;99.90
22813;DHT22;11573;51.334;3.244;2022-11-15T06:31:09;8.50;99.90
22813;DHT22;11573;51.334;3.244;2022-11-15T06:33:55;8.50;99.90
22813;DHT22;11573;51.334;3.244;2022-11-15T06:36:41;8.50;99.90
22813;DHT22;11573;51.334;3.244;2022-11-15T06:39:26;8.50;99.90
22813;DHT22;11573;51.334;3.244;2022-11-15T06:42:12;8.50;99.90
22813;DHT22;11573;51.334;3.244;2022-11-15T06:44:57;8.50;99.90
22813;DHT22;11573;51.334;3.244;2022-11-15T06:47:46;8.50;99.90
22813;DHT22;11573;51.334;3.244;2022-11-15T06:50:32;8.50;99.90
22813;DHT22;11573;51.334;3.244;2022-11-15T06:53:18;8.50;99.90
22813;DHT22;11573;51.334;3.244;2022-11-15T06:56:05;8.50;99.90
22813;DHT22;11573;51.334;3.244;2022-11-15T06:58:51;8.50;99.90
22813;DHT22;11573;51.334;3.244;2022-11-15T07:01:36;8.50;99.90
22813;DHT22;11573;51.334;3.244;2022-11-15T07:04:22;8.50;99.90
22813;DHT22;11573;51.334;3.244;2022-11-15T07:07:08;8.50;99.90
22813;DHT22;11573;51.334;3.244;2022-11-15T07:09:53;8.50;99.90
22813;DHT22;11573;51.334;3.244;2022-11-15T07:12:38;8.50;99.90
22813;DHT22;11573;51.334;3.244;2022-11-15T07:15:25;8.50;99.90
22813;DHT22;11573;51.334;3.244;2022-11-15T07:18:11;8.50;99.90
22813;DHT22;11573;51.334;3.244;2022-11-15T07:21:03;8.50;99.90
22813;DHT22;11573;51.334;3.244;2022-11-15T07:23:49;8.50;99.90
22813;DHT22;11573;51.334;3.244;2022-11-15T07:26:35;8.50;99.90
22813;DHT22;11573;51.334;3.244;2022-11-15T07:29:20;8.50;99.90
22813;DHT22;11573;51.334;3.244;2022-11-15T07:32:06;8.50;99.90
22813;DHT22;11573;51.334;3.244;2022-11-15T07:34:51;8.50;99.90
22813;DHT22;11573;51.334;3.244;2022-11-15T07:37:37;8.60;99.90
22813;DHT22;11573;51.334;3.244;2022-11-15T07:40:23;8.60;99.90
22813;DHT22;11573;51.334;3.244;2022-11-15T07:43:09;8.70;99.90
22813;DHT22;11573;51.334;3.244;2022-11-15T07:45:55;8.70;99.90
22813;DHT22;11573;51.334;3.244;2022-11-15T07:48:43;8.80;99.90
22813;DHT22;11573;51.334;3.244;2022-11-15T07:51:33;8.80;99.90
22813;DHT22;11573;51.334;3.244;2022-11-15T07:54:18;8.90;99.90
22813;DHT22;11573;51.334;3.244;2022-11-15T07:57:04;8.90;99.90
22813;DHT22;11573;51.334;3.244;2022-11-15T07:59:52;8.90;99.90
22813;DHT22;11573;51.334;3.244;2022-11-15T08:02:37;8.90;99.90
22813;DHT22;11573;51.334;3.244;2022-11-15T08:05:23;9.00;99.90
22813;DHT22;11573;51.334;3.244;2022-11-15T08:08:10;9.10;99.90
22813;DHT22;11573;51.334;3.244;2022-11-15T08:10:57;9.20;99.90
22813;DHT22;11573;51.334;3.244;2022-11-15T08:13:43;9.20;99.90
22813;DHT22;11573;51.334;3.244;2022-11-15T08:16:29;9.20;99.90
22813;DHT22;11573;51.334;3.244;2022-11-15T08:19:14;9.30;99.90
22813;DHT22;11573;51.334;3.244;2022-11-15T08:22:00;9.30;99.90
22813;DHT22;11573;51.334;3.244;2022-11-15T08:24:46;9.30;99.90
22813;DHT22;11573;51.334;3.244;2022-11-15T08:27:31;9.40;99.90
22813;DHT22;11573;51.334;3.244;2022-11-15T08:30:17;9.40;99.90
22813;DHT22;11573;51.334;3.244;2022-11-15T08:33:02;9.40;99.90
22813;DHT22;11573;51.334;3.244;2022-11-15T08:35:48;9.40;99.90
22813;DHT22;11573;51.334;3.244;2022-11-15T08:38:33;9.40;99.90
22813;DHT22;11573;51.334;3.244;2022-11-15T08:41:26;9.40;99.90
22813;DHT22;11573;51.334;3.244;2022-11-15T08:44:13;9.40;99.90
22813;DHT22;11573;51.334;3.244;2022-11-15T08:46:58;9.50;99.90
22813;DHT22;11573;51.334;3.244;2022-11-15T08:49:44;9.50;99.90
22813;DHT22;11573;51.334;3.244;2022-11-15T08:52:29;9.50;99.90
22813;DHT22;11573;51.334;3.244;2022-11-15T08:55:15;9.50;99.90
22813;DHT22;11573;51.334;3.244;2022-11-15T08:58:02;9.50;99.90
22813;DHT22;11573;51.334;3.244;2022-11-15T09:00:47;9.50;99.90
22813;DHT22;11573;51.334;3.244;2022-11-15T09:03:33;9.60;99.90
22813;DHT22;11573;51.334;3.244;2022-11-15T09:06:18;9.60;99.90
22813;DHT22;11573;51.334;3.244;2022-11-15T09:09:04;9.60;99.90
22813;DHT22;11573;51.334;3.244;2022-11-15T09:11:49;9.80;99.90
22813;DHT22;11573;51.334;3.244;2022-11-15T09:14:35;9.90;99.90
22813;DHT22;11573;51.334;3.244;2022-11-15T09:17:20;10.10;99.90
22813;DHT22;11573;51.334;3.244;2022-11-15T09:20:10;10.20;99.90
22813;DHT22;11573;51.334;3.244;2022-11-15T09:22:59;10.30;99.90
22813;DHT22;11573;51.334;3.244;2022-11-15T09:25:45;10.30;99.90
22813;DHT22;11573;51.334;3.244;2022-11-15T09:28:31;10.40;99.90
22813;DHT22;11573;51.334;3.244;2022-11-15T09:31:18;10.50;99.90
22813;DHT22;11573;51.334;3.244;2022-11-15T09:34:06;10.60;99.90
22813;DHT22;11573;51.334;3.244;2022-11-15T09:36:52;10.70;99.90
22813;DHT22;11573;51.334;3.244;2022-11-15T09:39:38;10.80;99.90
22813;DHT22;11573;51.334;3.244;2022-11-15T09:42:48;10.80;99.90
22813;DHT22;11573;51.334;3.244;2022-11-15T09:49:03;11.00;99.90
22813;DHT22;11573;51.334;3.244;2022-11-15T09:51:57;11.00;99.90
22813;DHT22;11573;51.334;3.244;2022-11-15T09:54:43;11.10;99.90
22813;DHT22;11573;51.334;3.244;2022-11-15T09:57:33;11.10;99.90
22813;DHT22;11573;51.334;3.244;2022-11-15T10:00:19;11.20;99.90
22813;DHT22;11573;51.334;3.244;2022-11-15T10:03:13;11.40;99.90
22813;DHT22;11573;51.334;3.244;2022-11-15T10:05:47;11.50;99.90
22813;DHT22;11573;51.334;3.244;2022-11-15T10:08:37;11.60;99.90
22813;DHT22;11573;51.334;3.244;2022-11-15T10:11:10;11.80;99.90
22813;DHT22;11573;51.334;3.244;2022-11-15T10:14:21;11.90;99.90
22813;DHT22;11573;51.334;3.244;2022-11-15T10:19:59;12.00;99.90
22813;DHT22;11573;51.334;3.244;2022-11-15T10:22:38;12.10;99.90
22813;DHT22;11573;51.334;3.244;2022-11-15T10:27:36;12.30;99.90
22813;DHT22;11573;51.334;3.244;2022-11-15T10:30:08;12.30;99.90
22813;DHT22;11573;51.334;3.244;2022-11-15T10:32:37;12.30;99.90
22813;DHT22;11573;51.334;3.244;2022-11-15T10:35:18;12.30;99.90
22813;DHT22;11573;51.334;3.244;2022-11-15T10:37:45;12.30;99.90
22813;DHT22;11573;51.334;3.244;2022-11-15T10:40:21;12.30;99.90
22813;DHT22;11573;51.334;3.244;2022-11-15T10:45:37;12.50;99.90
22813;DHT22;11573;51.334;3.244;2022-11-15T10:50:45;12.80;99.90
22813;DHT22;11573;51.334;3.244;2022-11-15T10:53:18;13.00;99.90
22813;DHT22;11573;51.334;3.244;2022-11-15T10:55:48;13.10;99.90
22813;DHT22;11573;51.334;3.244;2022-11-15T11:03:57;13.00;99.90
22813;DHT22;11573;51.334;3.244;2022-11-15T11:06:26;13.00;99.90
22813;DHT22;11573;51.334;3.244;2022-11-15T11:09:04;12.90;99.90
22813;DHT22;11573;51.334;3.244;2022-11-15T11:11:49;12.80;99.90
22813;DHT22;11573;51.334;3.244;2022-11-15T11:14:22;12.80;99.90
22813;DHT22;11573;51.334;3.244;2022-11-15T11:16:54;12.70;99.90
22813;DHT22;11573;51.334;3.244;2022-11-15T11:19:36;12.60;99.90
22813;DHT22;11573;51.334;3.244;2022-11-15T11:35:24;12.70;99.90
22813;DHT22;11573;51.334;3.244;2022-11-15T11:38:17;12.70;99.90
22813;DHT22;11573;51.334;3.244;2022-11-15T11:41:09;12.80;99.90
22813;DHT22;11573;51.334;3.244;2022-11-15T11:44:03;13.00;99.90
22813;DHT22;11573;51.334;3.244;2022-11-15T11:46:54;13.30;99.90
22813;DHT22;11573;51.334;3.244;2022-11-15T11:52:16;13.30;99.90
22813;DHT22;11573;51.334;3.244;2022-11-15T11:57:48;13.30;99.90
22813;DHT22;11573;51.334;3.244;2022-11-15T12:00:23;13.40;99.90
22813;DHT22;11573;51.334;3.244;2022-11-15T12:05:41;13.30;99.90
22813;DHT22;11573;51.334;3.244;2022-11-15T12:11:15;13.20;99.90
22813;DHT22;11573;51.334;3.244;2022-11-15T12:13:45;13.10;99.90
22813;DHT22;11573;51.334;3.244;2022-11-15T12:16:16;13.00;99.90
22813;DHT22;11573;51.334;3.244;2022-11-15T12:18:48;12.90;99.90
22813;DHT22;11573;51.334;3.244;2022-11-15T12:21:43;12.80;99.90
22813;DHT22;11573;51.334;3.244;2022-11-15T12:24:21;12.80;99.90
22813;DHT22;11573;51.334;3.244;2022-11-15T12:26:59;12.70;99.90
22813;DHT22;11573;51.334;3.244;2022-11-15T12:29:38;12.70;99.90
22813;DHT22;11573;51.334;3.244;2022-11-15T12:32:31;12.80;99.90
22813;DHT22;11573;51.334;3.244;2022-11-15T12:35:01;12.90;99.90
22813;DHT22;11573;51.334;3.244;2022-11-15T12:45:40;13.20;99.90
22813;DHT22;11573;51.334;3.244;2022-11-15T12:50:57;13.30;99.90
22813;DHT22;11573;51.334;3.244;2022-11-15T13:07:02;13.20;99.90
22813;DHT22;11573;51.334;3.244;2022-11-15T13:17:50;13.00;99.90
22813;DHT22;11573;51.334;3.244;2022-11-15T13:20:18;12.90;99.90
22813;DHT22;11573;51.334;3.244;2022-11-15T13:33:56;12.60;99.90
22813;DHT22;11573;51.334;3.244;2022-11-15T13:36:32;12.50;99.90
22813;DHT22;11573;51.334;3.244;2022-11-15T13:41:34;12.60;99.90
22813;DHT22;11573;51.334;3.244;2022-11-15T13:44:03;12.60;99.90
22813;DHT22;11573;51.334;3.244;2022-11-15T13:46:33;12.60;99.90
22813;DHT22;11573;51.334;3.244;2022-11-15T13:49:03;12.50;99.90
22813;DHT22;11573;51.334;3.244;2022-11-15T13:54:27;12.40;99.90
22813;DHT22;11573;51.334;3.244;2022-11-15T13:56:59;12.40;99.90
22813;DHT22;11573;51.334;3.244;2022-11-15T13:59:29;12.30;99.90
22813;DHT22;11573;51.334;3.244;2022-11-15T14:02:02;12.30;99.90
22813;DHT22;11573;51.334;3.244;2022-11-15T14:04:30;12.20;99.90
22813;DHT22;11573;51.334;3.244;2022-11-15T14:07:01;12.20;99.90
22813;DHT22;11573;51.334;3.244;2022-11-15T14:09:37;12.10;99.90
22813;DHT22;11573;51.334;3.244;2022-11-15T14:12:27;12.00;99.90
22813;DHT22;11573;51.334;3.244;2022-11-15T14:14:56;11.90;99.90
22813;DHT22;11573;51.334;3.244;2022-11-15T14:19:57;11.90;99.90
22813;DHT22;11573;51.334;3.244;2022-11-15T14:22:26;11.80;99.90
22813;DHT22;11573;51.334;3.244;2022-11-15T14:27:34;11.80;99.90
22813;DHT22;11573;51.334;3.244;2022-11-15T14:30:01;11.70;99.90
22813;DHT22;11573;51.334;3.244;2022-11-15T14:32:43;11.70;99.90
22813;DHT22;11573;51.334;3.244;2022-11-15T14:35:20;11.70;99.90
22813;DHT22;11573;51.334;3.244;2022-11-15T14:37:47;11.60;99.90
22813;DHT22;11573;51.334;3.244;2022-11-15T14:40:20;11.60;99.90
22813;DHT22;11573;51.334;3.244;2022-11-15T14:42:48;11.50;99.90
22813;DHT22;11573;51.334;3.244;2022-11-15T14:45:20;11.50;99.90
22813;DHT22;11573;51.334;3.244;2022-11-15T14:47:48;11.40;99.90
22813;DHT22;11573;51.334;3.244;2022-11-15T14:50:17;11.40;99.90
22813;DHT22;11573;51.334;3.244;2022-11-15T14:52:45;11.40;99.90
22813;DHT22;11573;51.334;3.244;2022-11-15T14:57:47;11.30;99.90
22813;DHT22;11573;51.334;3.244;2022-11-15T15:00:15;11.30;99.90
22813;DHT22;11573;51.334;3.244;2022-11-15T15:02:44;11.30;99.90
22813;DHT22;11573;51.334;3.244;2022-11-15T15:05:22;11.30;99.90
22813;DHT22;11573;51.334;3.244;2022-11-15T15:07:50;11.30;99.90
22813;DHT22;11573;51.334;3.244;2022-11-15T15:10:20;11.30;99.90
22813;DHT22;11573;51.334;3.244;2022-11-15T15:13:25;11.30;99.90
22813;DHT22;11573;51.334;3.244;2022-11-15T15:15:52;11.30;99.90
22813;DHT22;11573;51.334;3.244;2022-11-15T15:18:19;11.30;99.90
22813;DHT22;11573;51.334;3.244;2022-11-15T15:20:57;11.30;99.90
22813;DHT22;11573;51.334;3.244;2022-11-15T15:23:26;11.30;99.90
22813;DHT22;11573;51.334;3.244;2022-11-15T15:25:55;11.30;99.90
22813;DHT22;11573;51.334;3.244;2022-11-15T15:28:23;11.30;99.90
22813;DHT22;11573;51.334;3.244;2022-11-15T15:30:54;11.30;99.90
22813;DHT22;11573;51.334;3.244;2022-11-15T15:33:21;11.30;99.90
22813;DHT22;11573;51.334;3.244;2022-11-15T15:35:47;11.30;99.90
22813;DHT22;11573;51.334;3.244;2022-11-15T15:38:14;11.30;99.90
22813;DHT22;11573;51.334;3.244;2022-11-15T15:40:42;11.30;99.90
22813;DHT22;11573;51.334;3.244;2022-11-15T15:43:09;11.30;99.90
22813;DHT22;11573;51.334;3.244;2022-11-15T15:45:39;11.20;99.90
22813;DHT22;11573;51.334;3.244;2022-11-15T15:48:12;11.20;99.90
22813;DHT22;11573;51.334;3.244;2022-11-15T15:50:41;11.30;99.90
22813;DHT22;11573;51.334;3.244;2022-11-15T15:53:13;11.30;99.90
22813;DHT22;11573;51.334;3.244;2022-11-15T15:55:40;11.30;99.90
22813;DHT22;11573;51.334;3.244;2022-11-15T15:58:08;11.30;99.90
22813;DHT22;11573;51.334;3.244;2022-11-15T16:00:36;11.30;99.90
22813;DHT22;11573;51.334;3.244;2022-11-15T16:03:03;11.30;99.90
22813;DHT22;11573;51.334;3.244;2022-11-15T16:05:30;11.30;99.90
22813;DHT22;11573;51.334;3.244;2022-11-15T16:07:57;11.30;99.90
22813;DHT22;11573;51.334;3.244;2022-11-15T16:10:29;11.30;99.90
22813;DHT22;11573;51.334;3.244;2022-11-15T16:12:57;11.30;99.90
22813;DHT22;11573;51.334;3.244;2022-11-15T16:15:28;11.30;99.90
22813;DHT22;11573;51.334;3.244;2022-11-15T16:17:58;11.30;99.90
22813;DHT22;11573;51.334;3.244;2022-11-15T16:23:05;11.40;99.90
22813;DHT22;11573;51.334;3.244;2022-11-15T16:25:46;11.40;99.90
22813;DHT22;11573;51.334;3.244;2022-11-15T16:28:25;11.40;99.90
22813;DHT22;11573;51.334;3.244;2022-11-15T16:31:01;11.50;99.90
22813;DHT22;11573;51.334;3.244;2022-11-15T16:33:29;11.50;99.90
22813;DHT22;11573;51.334;3.244;2022-11-15T16:35:58;11.50;99.90
22813;DHT22;11573;51.334;3.244;2022-11-15T16:38:25;11.60;99.90
22813;DHT22;11573;51.334;3.244;2022-11-15T16:40:53;11.60;99.90
22813;DHT22;11573;51.334;3.244;2022-11-15T16:43:20;11.70;99.90
22813;DHT22;11573;51.334;3.244;2022-11-15T16:45:49;11.70;99.90
22813;DHT22;11573;51.334;3.244;2022-11-15T16:48:27;11.70;99.90
22813;DHT22;11573;51.334;3.244;2022-11-15T16:50:56;11.70;99.90
22813;DHT22;11573;51.334;3.244;2022-11-15T16:53:26;11.70;99.90
22813;DHT22;11573;51.334;3.244;2022-11-15T16:55:54;11.70;99.90
22813;DHT22;11573;51.334;3.244;2022-11-15T16:58:22;11.70;99.90
22813;DHT22;11573;51.334;3.244;2022-11-15T17:00:51;11.70;99.90
22813;DHT22;11573;51.334;3.244;2022-11-15T17:03:23;11.70;99.90
22813;DHT22;11573;51.334;3.244;2022-11-15T17:05:51;11.70;99.90
22813;DHT22;11573;51.334;3.244;2022-11-15T17:08:19;11.80;99.90
22813;DHT22;11573;51.334;3.244;2022-11-15T17:10:48;11.80;99.90
22813;DHT22;11573;51.334;3.244;2022-11-15T17:13:16;11.80;99.90
22813;DHT22;11573;51.334;3.244;2022-11-15T17:15:43;11.80;99.90
22813;DHT22;11573;51.334;3.244;2022-11-15T17:18:11;11.80;99.90
22813;DHT22;11573;51.334;3.244;2022-11-15T17:20:42;11.90;99.90
22813;DHT22;11573;51.334;3.244;2022-11-15T17:23:12;11.90;99.90
22813;DHT22;11573;51.334;3.244;2022-11-15T17:25:40;11.90;99.90
22813;DHT22;11573;51.334;3.244;2022-11-15T17:28:07;12.00;99.90
22813;DHT22;11573;51.334;3.244;2022-11-15T17:30:34;12.00;99.90
22813;DHT22;11573;51.334;3.244;2022-11-15T17:33:01;11.90;99.90
22813;DHT22;11573;51.334;3.244;2022-11-15T17:35:28;11.90;99.90
22813;DHT22;11573;51.334;3.244;2022-11-15T17:37:55;11.90;99.90
22813;DHT22;11573;51.334;3.244;2022-11-15T17:40:22;11.90;99.90
22813;DHT22;11573;51.334;3.244;2022-11-15T17:42:49;11.90;99.90
22813;DHT22;11573;51.334;3.244;2022-11-15T17:45:16;11.90;99.90
22813;DHT22;11573;51.334;3.244;2022-11-15T17:47:42;11.90;99.90
22813;DHT22;11573;51.334;3.244;2022-11-15T17:50:09;12.00;99.90
22813;DHT22;11573;51.334;3.244;2022-11-15T17:52:37;12.00;99.90
22813;DHT22;11573;51.334;3.244;2022-11-15T17:55:04;12.00;99.90
22813;DHT22;11573;51.334;3.244;2022-11-15T17:57:31;12.00;99.90
22813;DHT22;11573;51.334;3.244;2022-11-15T17:59:58;12.00;99.90
22813;DHT22;11573;51.334;3.244;2022-11-15T18:02:25;12.00;99.90
22813;DHT22;11573;51.334;3.244;2022-11-15T18:04:52;12.00;99.90
22813;DHT22;11573;51.334;3.244;2022-11-15T18:07:19;12.00;99.90
22813;DHT22;11573;51.334;3.244;2022-11-15T18:09:45;12.10;99.90
22813;DHT22;11573;51.334;3.244;2022-11-15T18:12:13;12.10;99.90
22813;DHT22;11573;51.334;3.244;2022-11-15T18:14:40;12.10;99.90
22813;DHT22;11573;51.334;3.244;2022-11-15T18:17:06;12.10;99.90
22813;DHT22;11573;51.334;3.244;2022-11-15T18:19:33;12.10;99.90
22813;DHT22;11573;51.334;3.244;2022-11-15T18:22:02;12.10;99.90
22813;DHT22;11573;51.334;3.244;2022-11-15T18:24:32;12.00;99.90
22813;DHT22;11573;51.334;3.244;2022-11-15T18:27:02;12.10;99.90
22813;DHT22;11573;51.334;3.244;2022-11-15T18:29:29;12.00;99.90
22813;DHT22;11573;51.334;3.244;2022-11-15T18:31:56;12.10;99.90
22813;DHT22;11573;51.334;3.244;2022-11-15T18:34:26;12.00;99.90
22813;DHT22;11573;51.334;3.244;2022-11-15T18:37:00;12.10;99.90
22813;DHT22;11573;51.334;3.244;2022-11-15T18:39:28;12.10;99.90
22813;DHT22;11573;51.334;3.244;2022-11-15T18:41:56;12.10;99.90
22813;DHT22;11573;51.334;3.244;2022-11-15T18:44:22;12.10;99.90
22813;DHT22;11573;51.334;3.244;2022-11-15T18:46:49;12.10;99.90
22813;DHT22;11573;51.334;3.244;2022-11-15T18:49:16;12.10;99.90
22813;DHT22;11573;51.334;3.244;2022-11-15T18:51:45;12.00;99.90
22813;DHT22;11573;51.334;3.244;2022-11-15T18:54:15;12.00;99.90
22813;DHT22;11573;51.334;3.244;2022-11-15T18:56:43;11.90;99.90
22813;DHT22;11573;51.334;3.244;2022-11-15T18:59:11;11.90;99.90
22813;DHT22;11573;51.334;3.244;2022-11-15T19:01:43;12.00;99.90
22813;DHT22;11573;51.334;3.244;2022-11-15T19:04:19;12.00;99.90
22813;DHT22;11573;51.334;3.244;2022-11-15T19:06:47;12.00;99.90
22813;DHT22;11573;51.334;3.244;2022-11-15T19:09:16;12.00;99.90
22813;DHT22;11573;51.334;3.244;2022-11-15T19:11:44;12.00;99.90
22813;DHT22;11573;51.334;3.244;2022-11-15T19:14:14;12.00;99.90